Time;durP1;ratioP1;P1;durP2;ratioP2;P2;SDS_P1;SDS_P2;PMS_P1;PMS_P2;Temp;Humidity;BMP_temperature;BMP_pressure;BME280_temperature;BME280_humidity;BME280_pressure;Samples;Min_cycle;Max_cycle;Signal;HPM_P1;HPM_P2
2023/04/23 00:01:05;;;;;;;28.55;19.63;;;;;;;;;;5037787;28;20600;-60
2023/04/23 00:03:33;;;;;;;35.55;21.58;;;;;;;;;;5020316;28;20054;-59
2023/04/23 00:05:59;;;;;;;29.13;19.48;;;;;;;;;;5029260;28;20384;-59
2023/04/23 00:08:26;;;;;;;31.58;21.98;;;;;;;;;;5028610;28;20045;-59
2023/04/23 00:10:52;;;;;;;35.13;20.70;;;;;;;;;;5011491;28;20033;-60
2023/04/23 00:13:19;;;;;;;30.73;21.00;;;;;;;;;;5028368;28;20049;-59
2023/04/23 00:15:45;;;;;;;31.25;21.80;;;;;;;;;;5011768;28;20069;-59
2023/04/23 00:18:12;;;;;;;32.97;21.88;;;;;;;;;;5023658;28;20088;-59
2023/04/23 00:20:38;;;;;;;33.20;22.23;;;;;;;;;;5012547;28;20046;-60
2023/04/23 00:23:04;;;;;;;34.58;23.35;;;;;;;;;;5014110;28;20034;-60
2023/04/23 00:25:30;;;;;;;34.72;21.38;;;;;;;;;;5026016;28;20124;-59
2023/04/23 00:27:57;;;;;;;54.42;23.88;;;;;;;;;;5021122;28;20076;-59
2023/04/23 00:30:23;;;;;;;28.45;18.95;;;;;;;;;;5014318;28;20558;-59
2023/04/23 00:32:49;;;;;;;60.35;23.52;;;;;;;;;;5010979;28;20067;-59
2023/04/23 00:35:15;;;;;;;42.60;21.27;;;;;;;;;;5021581;28;20069;-59
2023/04/23 00:37:41;;;;;;;36.35;21.50;;;;;;;;;;5029025;28;20040;-59
2023/04/23 00:40:08;;;;;;;45.10;20.73;;;;;;;;;;5010809;28;20037;-59
2023/04/23 00:42:34;;;;;;;68.82;24.50;;;;;;;;;;5028389;28;20065;-59
2023/04/23 00:45:01;;;;;;;30.00;19.20;;;;;;;;;;5028104;28;20060;-59
2023/04/23 00:47:29;;;;;;;65.53;21.33;;;;;;;;;;5022453;28;20531;-59
2023/04/23 00:49:56;;;;;;;30.77;19.85;;;;;;;;;;5026277;28;20033;-59
2023/04/23 00:52:22;;;;;;;47.63;20.10;;;;;;;;;;5028906;28;20044;-60
2023/04/23 00:54:48;;;;;;;60.00;22.58;;;;;;;;;;5027280;28;20038;-59
2023/04/23 00:57:15;;;;;;;55.25;21.73;;;;;;;;;;5011149;28;20140;-59
2023/04/23 00:59:42;;;;;;;63.25;22.77;;;;;;;;;;5007812;28;20034;-60
2023/04/23 01:02:08;;;;;;;46.75;23.85;;;;;;;;;;5023938;28;20548;-59
2023/04/23 01:04:35;;;;;;;83.53;24.88;;;;;;;;;;5025777;28;20060;-59
2023/04/23 01:07:02;;;;;;;39.25;22.42;;;;;;;;;;5041326;28;20534;-60
2023/04/23 01:09:28;;;;;;;38.95;21.55;;;;;;;;;;5030644;28;20491;-59
2023/04/23 01:11:55;;;;;;;34.17;22.35;;;;;;;;;;5046474;28;20072;-59
2023/04/23 01:14:21;;;;;;;38.17;22.77;;;;;;;;;;5040980;28;20125;-59
2023/04/23 01:16:47;;;;;;;32.88;20.83;;;;;;;;;;5042354;28;20040;-60
2023/04/23 01:19:15;;;;;;;36.35;23.10;;;;;;;;;;5038448;28;20140;-59
2023/04/23 01:21:41;;;;;;;29.45;22.10;;;;;;;;;;5025174;28;20403;-60
2023/04/23 01:24:08;;;;;;;35.83;22.50;;;;;;;;;;5037251;28;20726;-59
2023/04/23 01:26:34;;;;;;;36.47;23.48;;;;;;;;;;5037286;28;20045;-60
2023/04/23 01:29:01;;;;;;;30.30;21.08;;;;;;;;;;5047910;28;20459;-59
2023/04/23 01:31:27;;;;;;;34.05;21.63;;;;;;;;;;5044191;28;20073;-59
2023/04/23 01:33:54;;;;;;;33.40;22.52;;;;;;;;;;5037615;28;20041;-60
2023/04/23 01:36:21;;;;;;;39.58;21.45;;;;;;;;;;5041468;28;20037;-59
2023/04/23 01:38:48;;;;;;;32.83;20.10;;;;;;;;;;5027518;28;20527;-59
2023/04/23 01:41:14;;;;;;;34.38;21.00;;;;;;;;;;5049137;28;20136;-60
2023/04/23 01:43:43;;;;;;;39.22;22.98;;;;;;;;;;5046733;28;20087;-59
2023/04/23 01:46:09;;;;;;;37.03;24.58;;;;;;;;;;5041717;28;20044;-59
2023/04/23 01:48:36;;;;;;;39.90;25.48;;;;;;;;;;5047819;28;20045;-60
2023/04/23 01:51:03;;;;;;;40.63;25.23;;;;;;;;;;5050057;28;20200;-59
2023/04/23 01:53:29;;;;;;;46.05;28.48;;;;;;;;;;5046418;28;20037;-60
2023/04/23 01:55:55;;;;;;;39.17;25.85;;;;;;;;;;5043383;28;20037;-60
2023/04/23 01:58:22;;;;;;;43.13;28.30;;;;;;;;;;5030823;28;20533;-59
2023/04/23 02:00:51;;;;;;;43.75;26.65;;;;;;;;;;5047457;28;20562;-59
2023/04/23 02:03:17;;;;;;;44.67;28.48;;;;;;;;;;5046944;28;20060;-60
2023/04/23 02:05:44;;;;;;;47.65;27.73;;;;;;;;;;5033865;28;20049;-59
2023/04/23 02:08:10;;;;;;;45.20;27.77;;;;;;;;;;5025802;28;20048;-59
2023/04/23 02:10:36;;;;;;;45.47;28.13;;;;;;;;;;5027343;28;20068;-59
2023/04/23 02:13:03;;;;;;;45.88;29.40;;;;;;;;;;5027331;28;20099;-60
2023/04/23 02:15:29;;;;;;;44.05;28.25;;;;;;;;;;5026697;28;20048;-60
2023/04/23 02:17:56;;;;;;;44.35;27.98;;;;;;;;;;5020292;28;20415;-60
2023/04/23 02:20:22;;;;;;;49.25;32.35;;;;;;;;;;5014043;28;20053;-60
2023/04/23 02:22:49;;;;;;;54.80;33.28;;;;;;;;;;5011246;28;20494;-59
2023/04/23 02:25:16;;;;;;;61.42;36.58;;;;;;;;;;5025302;28;20096;-60
2023/04/23 02:27:43;;;;;;;82.93;40.00;;;;;;;;;;5025510;28;20051;-60
2023/04/23 02:30:10;;;;;;;65.18;36.15;;;;;;;;;;5016294;28;20044;-59
2023/04/23 02:32:36;;;;;;;87.88;39.45;;;;;;;;;;5013586;28;20039;-60
2023/04/23 02:35:05;;;;;;;76.78;37.28;;;;;;;;;;5027110;28;20033;-60
2023/04/23 02:37:32;;;;;;;121.88;42.90;;;;;;;;;;5030858;28;20057;-59
2023/04/23 02:39:58;;;;;;;78.78;36.67;;;;;;;;;;5027170;28;20029;-60
2023/04/23 02:42:24;;;;;;;117.93;41.83;;;;;;;;;;5029270;28;20045;-60
2023/04/23 02:44:50;;;;;;;81.28;39.72;;;;;;;;;;5029695;28;20049;-60
2023/04/23 02:47:17;;;;;;;66.50;37.05;;;;;;;;;;5031402;28;20077;-60
2023/04/23 02:49:43;;;;;;;122.53;40.97;;;;;;;;;;5024725;28;20109;-60
2023/04/23 02:52:09;;;;;;;194.10;51.65;;;;;;;;;;5027299;28;20045;-59
2023/04/23 02:54:38;;;;;;;78.35;42.17;;;;;;;;;;5005878;28;20492;-59
2023/04/23 02:57:05;;;;;;;104.25;47.17;;;;;;;;;;5029485;28;20507;-60
2023/04/23 02:59:31;;;;;;;89.65;42.33;;;;;;;;;;5021569;28;20407;-60
2023/04/23 03:01:57;;;;;;;102.75;46.60;;;;;;;;;;5016946;28;20117;-60
2023/04/23 03:04:23;;;;;;;83.53;47.33;;;;;;;;;;5011045;28;20235;-59
2023/04/23 03:06:50;;;;;;;83.93;46.72;;;;;;;;;;5036713;28;20522;-59
2023/04/23 03:09:16;;;;;;;93.30;48.40;;;;;;;;;;5045846;28;20080;-60
2023/04/23 03:11:43;;;;;;;82.93;47.45;;;;;;;;;;5043914;28;20068;-60
2023/04/23 03:14:09;;;;;;;84.18;48.75;;;;;;;;;;5044181;28;20392;-60
2023/04/23 03:16:35;;;;;;;102.38;52.40;;;;;;;;;;5042762;28;20534;-60
2023/04/23 03:19:01;;;;;;;90.78;51.45;;;;;;;;;;5049422;28;20461;-59
2023/04/23 03:21:28;;;;;;;93.82;48.65;;;;;;;;;;5030780;28;20045;-60
2023/04/23 03:23:54;;;;;;;84.40;49.15;;;;;;;;;;5041747;28;20491;-59
2023/04/23 03:26:20;;;;;;;92.60;50.63;;;;;;;;;;5015196;28;20387;-59
2023/04/23 03:28:46;;;;;;;88.93;50.97;;;;;;;;;;5025803;28;20061;-60
2023/04/23 03:31:12;;;;;;;87.72;49.08;;;;;;;;;;5043833;28;20037;-59
2023/04/23 03:33:38;;;;;;;88.75;49.75;;;;;;;;;;5035481;28;20041;-59
2023/04/23 03:36:04;;;;;;;85.25;48.97;;;;;;;;;;5048836;28;20037;-59
2023/04/23 03:38:30;;;;;;;98.45;54.05;;;;;;;;;;5049389;28;20094;-60
2023/04/23 03:40:57;;;;;;;89.63;50.47;;;;;;;;;;5031748;28;20045;-60
2023/04/23 03:43:23;;;;;;;82.60;48.63;;;;;;;;;;5039671;28;20057;-60
2023/04/23 03:45:49;;;;;;;86.85;49.92;;;;;;;;;;5034397;28;20044;-60
2023/04/23 03:48:15;;;;;;;89.28;52.17;;;;;;;;;;5038410;28;20051;-59
2023/04/23 03:50:41;;;;;;;81.38;47.35;;;;;;;;;;5043369;28;20037;-59
2023/04/23 03:53:09;;;;;;;102.70;51.80;;;;;;;;;;5038748;28;20103;-60
2023/04/23 03:55:35;;;;;;;86.72;51.25;;;;;;;;;;5033940;28;20045;-60
2023/04/23 03:58:02;;;;;;;87.30;49.65;;;;;;;;;;5044074;28;20041;-59
2023/04/23 04:00:28;;;;;;;90.82;51.70;;;;;;;;;;5028292;28;20037;-59
2023/04/23 04:02:54;;;;;;;91.63;51.75;;;;;;;;;;5038074;28;20107;-60
2023/04/23 04:05:21;;;;;;;90.88;52.85;;;;;;;;;;5042087;28;20063;-59
2023/04/23 04:07:47;;;;;;;91.65;51.05;;;;;;;;;;5043758;28;20045;-59
2023/04/23 04:10:14;;;;;;;94.07;48.70;;;;;;;;;;5030655;28;20037;-60
2023/04/23 04:12:41;;;;;;;89.07;54.72;;;;;;;;;;5042206;28;20040;-60
2023/04/23 04:15:07;;;;;;;92.82;50.92;;;;;;;;;;5048168;28;20033;-60
2023/04/23 04:17:33;;;;;;;91.32;49.00;;;;;;;;;;5044538;28;20041;-59
2023/04/23 04:20:00;;;;;;;84.28;48.90;;;;;;;;;;5040995;28;20040;-59
2023/04/23 04:22:26;;;;;;;93.40;49.95;;;;;;;;;;5049312;28;20044;-59
2023/04/23 04:24:52;;;;;;;85.55;48.67;;;;;;;;;;5036570;28;20048;-59
2023/04/23 04:27:19;;;;;;;87.65;51.50;;;;;;;;;;5048535;28;20053;-59
2023/04/23 04:29:45;;;;;;;88.25;51.35;;;;;;;;;;5044423;28;20033;-59
2023/04/23 04:32:12;;;;;;;97.22;54.47;;;;;;;;;;5047988;28;20356;-59
2023/04/23 04:34:38;;;;;;;89.65;53.58;;;;;;;;;;5043042;28;20037;-59
2023/04/23 04:37:04;;;;;;;81.70;47.92;;;;;;;;;;5042955;28;20124;-59
2023/04/23 04:39:30;;;;;;;90.88;49.00;;;;;;;;;;5045997;28;20407;-59
2023/04/23 04:41:58;;;;;;;85.80;49.95;;;;;;;;;;5035826;28;20056;-59
2023/04/23 04:44:24;;;;;;;78.72;47.88;;;;;;;;;;5043698;28;20056;-59
2023/04/23 04:46:51;;;;;;;85.80;50.78;;;;;;;;;;5050097;28;20048;-59
2023/04/23 04:49:18;;;;;;;83.57;48.47;;;;;;;;;;5047015;28;20128;-59
2023/04/23 04:51:44;;;;;;;94.65;49.67;;;;;;;;;;5048523;28;20087;-60
2023/04/23 04:54:11;;;;;;;88.88;51.65;;;;;;;;;;5029896;28;20051;-59
2023/04/23 04:56:37;;;;;;;76.82;49.58;;;;;;;;;;5047810;28;20063;-59
2023/04/23 04:59:03;;;;;;;87.70;48.80;;;;;;;;;;5048147;28;20116;-59
2023/04/23 05:01:29;;;;;;;84.38;50.22;;;;;;;;;;5048142;28;20041;-59
2023/04/23 05:03:56;;;;;;;82.75;47.58;;;;;;;;;;5041644;28;20132;-59
2023/04/23 05:06:22;;;;;;;87.65;49.53;;;;;;;;;;5032096;28;20091;-59
2023/04/23 05:08:48;;;;;;;88.47;49.85;;;;;;;;;;5046764;28;20045;-59
2023/04/23 05:11:16;;;;;;;89.88;47.65;;;;;;;;;;5048389;28;20037;-59
2023/04/23 05:13:42;;;;;;;86.65;49.50;;;;;;;;;;5019144;28;20037;-59
2023/04/23 05:16:08;;;;;;;82.00;46.65;;;;;;;;;;5045543;28;20124;-59
2023/04/23 05:18:34;;;;;;;80.20;47.17;;;;;;;;;;5047067;28;20265;-59
2023/04/23 05:21:00;;;;;;;84.22;47.67;;;;;;;;;;5041035;28;20107;-59
2023/04/23 05:23:27;;;;;;;77.75;46.15;;;;;;;;;;5045167;28;20446;-59
2023/04/23 05:25:54;;;;;;;77.32;46.28;;;;;;;;;;5047561;28;20072;-59
2023/04/23 05:28:21;;;;;;;82.75;48.28;;;;;;;;;;5028241;28;20403;-59
2023/04/23 05:30:47;;;;;;;83.60;47.13;;;;;;;;;;5048373;28;20032;-59
2023/04/23 05:33:13;;;;;;;76.93;46.92;;;;;;;;;;5047371;28;20487;-59
2023/04/23 05:35:39;;;;;;;86.40;47.65;;;;;;;;;;5046886;28;20102;-59
2023/04/23 05:38:05;;;;;;;79.35;45.80;;;;;;;;;;5040166;28;20040;-59
2023/04/23 05:40:32;;;;;;;72.82;44.42;;;;;;;;;;5043285;28;20052;-59
2023/04/23 05:42:58;;;;;;;76.45;43.65;;;;;;;;;;5021695;28;20052;-59
2023/04/23 05:45:25;;;;;;;78.38;45.75;;;;;;;;;;5014804;28;20049;-59
2023/04/23 05:47:51;;;;;;;68.13;41.15;;;;;;;;;;5045535;28;20044;-59
2023/04/23 05:50:17;;;;;;;71.43;43.50;;;;;;;;;;5037561;28;20116;-59
2023/04/23 05:52:44;;;;;;;67.63;40.40;;;;;;;;;;5010201;28;20087;-59
2023/04/23 05:55:10;;;;;;;69.55;41.63;;;;;;;;;;5024655;28;20045;-59
2023/04/23 05:57:37;;;;;;;62.03;37.47;;;;;;;;;;5046866;28;20129;-59
2023/04/23 06:00:04;;;;;;;56.65;36.50;;;;;;;;;;5032612;28;20494;-59
2023/04/23 06:02:32;;;;;;;62.08;37.60;;;;;;;;;;5035643;28;20053;-59
2023/04/23 06:04:58;;;;;;;58.67;36.20;;;;;;;;;;5048299;28;20060;-59
2023/04/23 06:07:25;;;;;;;56.17;35.53;;;;;;;;;;5043541;28;20041;-59
2023/04/23 06:09:51;;;;;;;53.28;33.50;;;;;;;;;;5050912;28;20039;-59
2023/04/23 06:12:17;;;;;;;51.67;32.00;;;;;;;;;;5051984;28;20037;-59
2023/04/23 06:14:44;;;;;;;50.05;31.45;;;;;;;;;;5048766;28;20510;-59
2023/04/23 06:17:10;;;;;;;49.67;32.35;;;;;;;;;;5046356;28;20124;-58
2023/04/23 06:19:36;;;;;;;52.63;33.58;;;;;;;;;;5047462;28;20045;-59
2023/04/23 06:22:02;;;;;;;56.60;35.70;;;;;;;;;;5045341;28;20099;-60
2023/04/23 06:24:28;;;;;;;57.03;33.47;;;;;;;;;;5044938;28;20114;-59
2023/04/23 06:26:55;;;;;;;53.08;33.08;;;;;;;;;;5048334;28;20052;-59
2023/04/23 06:29:21;;;;;;;53.10;35.63;;;;;;;;;;5051374;28;20124;-59
2023/04/23 06:31:47;;;;;;;49.28;32.30;;;;;;;;;;5051694;28;20033;-59
2023/04/23 06:34:13;;;;;;;51.38;33.97;;;;;;;;;;5034518;28;20116;-59
2023/04/23 06:36:39;;;;;;;50.90;33.63;;;;;;;;;;5023074;28;20116;-59
2023/04/23 06:39:05;;;;;;;60.78;37.10;;;;;;;;;;5039518;28;20052;-59
2023/04/23 06:41:32;;;;;;;50.47;33.60;;;;;;;;;;5051672;28;20037;-59
2023/04/23 06:43:58;;;;;;;53.83;33.65;;;;;;;;;;5029164;28;20040;-59
2023/04/23 06:46:24;;;;;;;53.35;36.10;;;;;;;;;;5039553;28;20053;-59
2023/04/23 06:48:50;;;;;;;53.80;34.83;;;;;;;;;;5048576;28;20045;-60
2023/04/23 06:51:17;;;;;;;57.58;35.58;;;;;;;;;;5050493;28;20569;-59
2023/04/23 06:53:43;;;;;;;60.60;37.22;;;;;;;;;;5038785;28;20038;-59
2023/04/23 06:56:09;;;;;;;54.35;34.05;;;;;;;;;;5043049;28;20033;-59
2023/04/23 06:58:35;;;;;;;54.63;35.10;;;;;;;;;;5031511;28;20052;-59
2023/04/23 07:01:06;;;;;;;57.33;36.65;;;;;;;;;;5038339;28;20093;-60
2023/04/23 07:03:32;;;;;;;58.40;37.95;;;;;;;;;;5042705;28;20331;-60
2023/04/23 07:05:58;;;;;;;65.57;38.42;;;;;;;;;;5045979;28;20045;-60
2023/04/23 07:08:24;;;;;;;58.38;34.58;;;;;;;;;;5048725;28;20417;-60
2023/04/23 07:10:52;;;;;;;53.80;34.50;;;;;;;;;;5022300;28;20075;-60
2023/04/23 07:13:18;;;;;;;58.42;36.40;;;;;;;;;;5050034;28;20047;-60
2023/04/23 07:15:45;;;;;;;63.75;36.70;;;;;;;;;;5043427;28;20168;-60
2023/04/23 07:18:11;;;;;;;56.67;36.13;;;;;;;;;;5032350;28;20404;-60
2023/04/23 07:20:37;;;;;;;62.75;38.35;;;;;;;;;;5037429;28;20037;-59
2023/04/23 07:23:04;;;;;;;53.33;36.28;;;;;;;;;;5044398;28;20037;-60
2023/04/23 07:25:31;;;;;;;57.35;35.53;;;;;;;;;;5040766;28;20049;-60
2023/04/23 07:27:57;;;;;;;53.13;33.58;;;;;;;;;;5049219;28;20049;-60
2023/04/23 07:30:23;;;;;;;58.28;34.90;;;;;;;;;;5042992;28;20067;-59
2023/04/23 07:32:50;;;;;;;51.17;32.33;;;;;;;;;;5048976;28;20029;-59
2023/04/23 07:35:16;;;;;;;54.28;34.45;;;;;;;;;;5049482;28;20120;-59
2023/04/23 07:37:42;;;;;;;52.80;33.85;;;;;;;;;;5048828;28;20102;-60
2023/04/23 07:40:08;;;;;;;52.75;35.35;;;;;;;;;;5028874;28;20037;-59
2023/04/23 07:42:35;;;;;;;46.17;33.75;;;;;;;;;;5031032;28;20043;-60
2023/04/23 07:45:01;;;;;;;50.92;33.60;;;;;;;;;;5049990;28;20466;-60
2023/04/23 07:47:27;;;;;;;52.20;33.40;;;;;;;;;;5038087;28;20522;-60
2023/04/23 07:49:53;;;;;;;45.25;31.52;;;;;;;;;;5040420;28;20414;-59
2023/04/23 07:52:19;;;;;;;54.65;31.75;;;;;;;;;;5049704;28;20028;-59
2023/04/23 07:54:45;;;;;;;49.85;32.05;;;;;;;;;;5049184;28;20037;-60
2023/04/23 07:57:12;;;;;;;47.33;32.17;;;;;;;;;;5039891;28;20033;-60
2023/04/23 07:59:38;;;;;;;48.38;31.42;;;;;;;;;;5042678;28;20399;-59
2023/04/23 08:02:04;;;;;;;49.22;32.80;;;;;;;;;;5045502;28;20495;-59
2023/04/23 08:04:30;;;;;;;44.38;30.02;;;;;;;;;;5043776;28;20057;-60
2023/04/23 08:06:57;;;;;;;44.63;28.38;;;;;;;;;;5042095;28;20124;-60
2023/04/23 08:09:23;;;;;;;41.10;27.65;;;;;;;;;;5037238;28;20037;-59
2023/04/23 08:11:50;;;;;;;41.38;28.02;;;;;;;;;;5037019;28;20207;-59
2023/04/23 08:14:17;;;;;;;43.22;25.13;;;;;;;;;;5048839;28;20169;-60
2023/04/23 08:16:43;;;;;;;31.40;22.40;;;;;;;;;;5042531;28;20045;-60
2023/04/23 08:19:10;;;;;;;34.80;24.65;;;;;;;;;;5039165;28;20476;-61
2023/04/23 08:21:36;;;;;;;34.58;24.33;;;;;;;;;;5046335;28;20076;-60
2023/04/23 08:24:03;;;;;;;36.50;22.05;;;;;;;;;;5037807;28;20041;-60
2023/04/23 08:26:30;;;;;;;34.90;23.52;;;;;;;;;;5030065;28;20091;-60
2023/04/23 08:28:56;;;;;;;35.60;22.13;;;;;;;;;;5041096;28;20161;-60
2023/04/23 08:31:22;;;;;;;32.22;21.20;;;;;;;;;;5047423;28;20569;-60
2023/04/23 08:33:49;;;;;;;33.88;22.08;;;;;;;;;;5048904;28;20442;-60
2023/04/23 08:36:15;;;;;;;31.10;21.65;;;;;;;;;;5047551;28;20559;-60
2023/04/23 08:38:41;;;;;;;29.52;20.70;;;;;;;;;;5041512;28;20047;-60
2023/04/23 08:41:09;;;;;;;25.90;17.55;;;;;;;;;;5029258;28;20045;-60
2023/04/23 08:43:56;;;;;;;31.42;20.30;;;;;;;;;;5126036;27;20417;-60
2023/04/23 08:46:22;;;;;;;26.48;20.63;;;;;;;;;;5115940;28;20089;-60
2023/04/23 08:48:51;;;;;;;26.30;18.70;;;;;;;;;;5124785;27;20044;-60
2023/04/23 08:51:18;;;;;;;27.65;19.02;;;;;;;;;;5114979;28;20039;-60
2023/04/23 08:53:45;;;;;;;25.85;18.45;;;;;;;;;;5118043;27;20035;-60
2023/04/23 08:56:13;;;;;;;28.10;18.67;;;;;;;;;;5125005;28;20036;-60
2023/04/23 08:58:40;;;;;;;27.00;17.58;;;;;;;;;;5111140;27;20074;-59
2023/04/23 09:01:06;;;;;;;25.02;17.10;;;;;;;;;;5126696;27;20039;-59
2023/04/23 09:03:33;;;;;;;24.30;17.50;;;;;;;;;;5119679;27;20093;-59
2023/04/23 09:05:59;;;;;;;25.83;16.80;;;;;;;;;;5113117;27;20058;-60
2023/04/23 09:08:25;;;;;;;18.95;14.85;;;;;;;;;;5116977;28;20093;-60
2023/04/23 09:10:52;;;;;;;23.83;16.95;;;;;;;;;;5124016;27;20040;-60
2023/04/23 09:13:18;;;;;;;20.23;13.88;;;;;;;;;;5122216;27;20039;-60
2023/04/23 09:15:44;;;;;;;20.13;14.93;;;;;;;;;;5118434;28;20066;-60
2023/04/23 09:18:10;;;;;;;22.17;14.13;;;;;;;;;;5113642;27;20084;-60
2023/04/23 09:20:37;;;;;;;22.63;14.40;;;;;;;;;;5113144;27;20032;-59
2023/04/23 09:23:07;;;;;;;20.52;12.50;;;;;;;;;;5125023;27;20096;-59
2023/04/23 09:25:33;;;;;;;19.67;12.25;;;;;;;;;;5117846;27;20119;-60
2023/04/23 09:28:02;;;;;;;22.17;12.30;;;;;;;;;;5130462;27;20051;-59
2023/04/23 09:30:29;;;;;;;20.63;13.35;;;;;;;;;;5125839;28;20040;-60
2023/04/23 09:32:55;;;;;;;19.10;12.50;;;;;;;;;;5112676;27;20036;-60
2023/04/23 09:35:21;;;;;;;16.45;11.80;;;;;;;;;;5110832;28;20039;-60
2023/04/23 09:37:49;;;;;;;17.00;11.45;;;;;;;;;;5113214;28;20040;-59
2023/04/23 09:40:16;;;;;;;18.15;11.60;;;;;;;;;;5121466;27;20458;-59
2023/04/23 09:42:47;;;;;;;17.98;11.68;;;;;;;;;;5117798;27;20508;-60
2023/04/23 09:45:13;;;;;;;13.38;10.10;;;10.40;99.90;;;;;;5113661;27;20047;-60
2023/04/23 09:47:40;;;;;;;11.50;7.95;;;13.80;99.90;;;;;;5122176;28;20251;-59
2023/04/23 09:50:09;;;;;;;15.00;8.52;;;13.80;99.90;;;;;;5116674;27;20024;-60
2023/04/23 09:52:38;;;;;;;13.65;7.95;;;13.90;99.90;;;;;;5113937;28;20113;-59
2023/04/23 09:55:04;;;;;;;12.00;7.50;;;14.00;99.90;;;;;;5093456;28;20115;-60
2023/04/23 09:57:38;;;;;;;15.88;8.50;;;;;;;;;;5107958;28;20119;-59
2023/04/23 10:00:17;;;;;;;13.18;7.28;;;;;;;;;;5104045;28;20093;-60
2023/04/23 10:02:50;;;;;;;12.43;6.88;;;;;;;;;;5095551;28;20106;-59
2023/04/23 10:05:16;;;;;;;;;;;;;;;;;;5102253;28;20032;-60
2023/04/23 10:07:45;;;;;;;15.27;7.65;;;14.10;99.90;;;;;;5103919;28;20383;-60
2023/04/23 10:10:11;;;;;;;12.68;7.47;;;14.50;99.90;;;;;;5096865;28;20371;-60
2023/04/23 10:12:37;;;;;;;11.10;7.88;;;14.60;99.90;;;;;;5093079;28;20047;-59
2023/04/23 10:15:04;;;;;;;15.27;7.72;;;14.70;99.90;;;;;;5105632;28;20051;-60
2023/04/23 10:17:30;;;;;;;10.95;7.15;;;14.80;99.90;;;;;;5103472;28;20558;-60
2023/04/23 10:20:00;;;;;;;10.23;7.28;;;14.80;99.90;;;;;;5097434;28;20040;-60
2023/04/23 10:22:28;;;;;;;10.30;5.70;;;14.80;99.90;;;;;;5096882;28;20066;-60
2023/04/23 10:24:57;;;;;;;10.18;5.93;;;14.90;99.90;;;;;;5106331;28;20074;-60
2023/04/23 10:27:27;;;;;;;10.73;6.22;;;15.00;99.90;;;;;;5106267;28;20512;-60
2023/04/23 10:29:53;;;;;;;8.57;5.30;;;15.00;99.90;;;;;;5092897;28;20486;-60
2023/04/23 10:32:20;;;;;;;9.68;5.28;;;15.00;99.90;;;;;;5093029;27;20035;-60
2023/04/23 10:34:47;;;;;;;8.23;5.38;;;15.10;99.90;;;;;;5102380;28;20498;-59
2023/04/23 10:37:14;;;;;;;9.38;5.25;;;15.10;99.90;;;;;;5101810;28;20047;-60
2023/04/23 10:39:43;;;;;;;9.95;5.05;;;15.20;99.90;;;;;;5093314;28;20498;-60
2023/04/23 10:42:12;;;;;;;12.43;5.93;;;;;;;;;;5091374;28;20060;-60
2023/04/23 10:44:39;;;;;;;10.90;5.78;;;;;;;;;;5100794;28;20054;-60
2023/04/23 10:47:05;;;;;;;8.38;4.72;;;;;;;;;;5103186;28;20032;-61
2023/04/23 10:49:32;;;;;;;10.25;5.40;;;;;;;;;;5103007;28;20047;-59
2023/04/23 10:52:03;;;;;;;5.93;3.90;;;;;;;;;;5110041;28;20067;-60
2023/04/23 10:54:30;;;;;;;7.78;3.47;;;;;;;;;;5101492;28;20036;-60
2023/04/23 10:57:15;;;;;;;5.57;3.20;;;;;;;;;;5099639;28;20039;-60
2023/04/23 10:59:50;;;;;;;7.15;3.30;;;;;;;;;;5091242;28;20047;-59
2023/04/23 11:02:17;;;;;;;6.13;2.22;;;;;;;;;;5107790;28;20039;-60
2023/04/23 11:04:47;;;;;;;4.15;2.65;;;;;;;;;;5102441;27;20266;-59
2023/04/23 11:07:14;;;;;;;3.83;2.38;;;;;;;;;;5092970;28;20115;-59
2023/04/23 11:09:41;;;;;;;5.70;3.13;;;;;;;;;;5104761;28;20043;-59
2023/04/23 11:12:11;;;;;;;5.32;2.60;;;;;;;;;;5101482;28;20508;-59
2023/04/23 11:14:48;;;;;;;5.68;3.35;;;;;;;;;;5099465;28;20508;-59
2023/04/23 11:17:18;;;;;;;4.85;3.30;;;;;;;;;;5103434;28;20047;-59
2023/04/23 11:20:05;;;;;;;4.40;3.05;;;;;;;;;;5099001;28;20035;-59
2023/04/23 11:22:35;;;;;;;4.60;2.42;;;;;;;;;;5098520;28;20047;-59
2023/04/23 11:25:03;;;;;;;7.60;2.70;;;;;;;;;;5098724;28;20028;-60
2023/04/23 11:27:30;;;;;;;3.70;2.30;;;;;;;;;;5093816;28;20494;-59
2023/04/23 11:29:56;;;;;;;11.07;3.05;;;;;;;;;;5093415;28;20170;-59
2023/04/23 11:32:23;;;;;;;6.93;3.10;;;;;;;;;;5101053;28;20115;-59
2023/04/23 11:34:50;;;;;;;6.75;3.88;;;;;;;;;;5099836;28;20040;-59
2023/04/23 11:37:17;;;;;;;5.40;3.25;;;;;;;;;;5102900;28;20090;-59
2023/04/23 11:39:46;;;;;;;7.28;3.65;;;;;;;;;;5104150;28;20121;-60
2023/04/23 11:42:16;;;;;;;10.07;3.97;;;;;;;;;;5100652;28;20248;-59
2023/04/23 11:44:43;;;;;;;8.82;4.22;;;;;;;;;;5093736;28;20109;-59
2023/04/23 11:47:10;;;;;;;5.55;4.20;;;;;;;;;;5102975;28;20047;-59
2023/04/23 11:49:39;;;;;;;7.95;5.07;;;;;;;;;;5105745;28;20095;-60
2023/04/23 11:52:06;;;;;;;7.57;4.28;;;;;;;;;;5100587;28;20138;-59
2023/04/23 11:54:33;;;;;;;5.30;2.97;;;;;;;;;;5089085;28;20835;-60
2023/04/23 11:57:00;;;;;;;4.50;2.63;;;;;;;;;;5096538;28;20036;-60
2023/04/23 11:59:27;;;;;;;7.68;3.47;;;;;;;;;;5101409;28;20070;-59
2023/04/23 12:01:55;;;;;;;9.77;2.78;;;;;;;;;;5097096;28;20044;-60
2023/04/23 12:04:21;;;;;;;4.63;2.83;;;;;;;;;;5101812;28;20036;-59
2023/04/23 12:06:48;;;;;;;5.70;2.88;;;;;;;;;;5101816;28;20077;-59
2023/04/23 12:09:15;;;;;;;6.63;3.47;;;;;;;;;;5095670;28;20507;-59
2023/04/23 12:11:41;;;;;;;7.07;3.22;;;;;;;;;;5100482;28;20063;-59
2023/04/23 12:14:08;;;;;;;6.57;3.05;;;;;;;;;;5099163;28;20638;-59
2023/04/23 12:16:36;;;;;;;9.15;3.17;;;;;;;;;;5104688;28;20044;-60
2023/04/23 12:19:02;;;;;;;4.78;2.35;;;;;;;;;;5101803;28;20044;-60
2023/04/23 12:21:28;;;;;;;8.90;2.40;;;;;;;;;;5097677;28;20173;-59
2023/04/23 12:23:55;;;;;;;6.90;2.83;;;;;;;;;;5096792;28;20058;-59
2023/04/23 12:26:23;;;;;;;4.95;2.13;;;;;;;;;;5103883;28;20042;-59
2023/04/23 12:28:50;;;;;;;7.07;2.42;;;;;;;;;;5106178;28;20040;-60
2023/04/23 12:31:23;;;;;;;6.55;2.50;;;;;;;;;;5095790;28;20188;-60
2023/04/23 12:34:08;;;;;;;7.00;2.58;;;;;;;;;;5102554;28;20382;-59
2023/04/23 12:36:35;;;;;;;9.68;2.92;;;;;;;;;;5104069;28;20385;-59
2023/04/23 12:39:20;;;;;;;5.32;2.72;;;;;;;;;;5103140;28;20039;-60
2023/04/23 12:41:48;;;;;;;6.00;2.30;;;;;;;;;;5088829;28;20131;-59
2023/04/23 12:44:14;;;;;;;12.32;2.55;;;;;;;;;;5099157;28;20048;-59
2023/04/23 12:46:40;;;;;;;3.92;2.03;;;;;;;;;;5100370;28;20088;-59
2023/04/23 12:49:06;;;;;;;7.72;2.50;;;;;;;;;;5103945;28;20029;-59
2023/04/23 12:51:33;;;;;;;6.20;2.35;;;;;;;;;;5099007;28;20043;-59
2023/04/23 12:53:59;;;;;;;5.32;2.10;;;;;;;;;;5099765;28;20179;-60
2023/04/23 12:56:25;;;;;;;39.80;3.88;;;;;;;;;;5098897;28;20032;-59
2023/04/23 12:58:52;;;;;;;6.03;2.38;;;;;;;;;;5091715;28;20077;-59
2023/04/23 13:01:18;;;;;;;5.93;2.47;;;;;;;;;;5099344;28;20054;-59
2023/04/23 13:03:44;;;;;;;8.52;2.47;;;;;;;;;;5099334;28;20117;-60
2023/04/23 13:06:10;;;;;;;6.80;2.67;;;;;;;;;;5096552;28;20048;-59
2023/04/23 13:08:37;;;;;;;5.65;2.25;;;;;;;;;;5078007;28;20047;-59
2023/04/23 13:11:03;;;;;;;6.35;2.25;;;;;;;;;;5105709;28;20034;-59
2023/04/23 13:13:29;;;;;;;8.48;2.70;;;;;;;;;;5097085;28;20127;-60
2023/04/23 13:15:55;;;;;;;9.20;2.53;;;;;;;;;;5101752;28;20036;-60
2023/04/23 13:18:21;;;;;;;7.25;2.28;;;;;;;;;;5095037;28;20039;-59
2023/04/23 13:20:48;;;;;;;8.10;2.63;;;;;;;;;;5094291;28;20103;-59
2023/04/23 13:23:14;;;;;;;7.25;2.92;;;;;;;;;;5097678;28;20051;-59
2023/04/23 13:25:40;;;;;;;7.03;2.40;;;;;;;;;;5095240;28;20040;-60
2023/04/23 13:28:06;;;;;;;5.30;2.13;;;;;;;;;;5105386;28;20526;-59
2023/04/23 13:30:32;;;;;;;6.00;1.98;;;;;;;;;;5100737;28;20039;-60
2023/04/23 13:32:59;;;;;;;6.50;2.15;;;;;;;;;;5098736;28;20047;-59
2023/04/23 13:35:25;;;;;;;7.53;2.55;;;;;;;;;;5105022;28;20569;-59
2023/04/23 13:37:51;;;;;;;8.40;3.03;;;;;;;;;;5097526;28;20394;-59
2023/04/23 13:40:17;;;;;;;10.45;2.83;;;;;;;;;;5108575;28;20500;-59
2023/04/23 13:42:44;;;;;;;6.30;2.08;;;;;;;;;;5100625;28;20084;-59
2023/04/23 13:45:10;;;;;;;6.28;2.55;;;;;;;;;;5097659;28;20047;-59
2023/04/23 13:47:36;;;;;;;5.53;1.90;;;;;;;;;;5098050;28;20035;-59
2023/04/23 13:50:05;;;;;;;6.70;2.17;;;;;;;;;;5107242;28;20354;-59
2023/04/23 13:52:32;;;;;;;5.70;1.63;;;;;;;;;;5102014;28;20044;-59
2023/04/23 13:54:59;;;;;;;6.57;2.47;;;;;;;;;;5109447;28;20082;-59
2023/04/23 13:57:26;;;;;;;7.80;2.70;;;;;;;;;;5107640;28;20050;-60
2023/04/23 13:59:54;;;;;;;4.55;2.00;;;;;;;;;;5098312;28;20043;-59
2023/04/23 14:02:21;;;;;;;5.47;1.98;;;;;;;;;;5105150;28;20169;-59
2023/04/23 14:04:47;;;;;;;5.10;2.10;;;;;;;;;;5108793;28;20074;-59
2023/04/23 14:07:13;;;;;;;7.95;2.10;;;;;;;;;;5105940;28;20032;-60
2023/04/23 14:09:39;;;;;;;4.85;1.77;;;;;;;;;;5109566;28;20493;-59
2023/04/23 14:12:05;;;;;;;3.63;1.88;;;;;;;;;;5101199;28;20039;-60
2023/04/23 14:14:32;;;;;;;5.63;2.90;;;;;;;;;;5107099;28;20157;-59